createdAt,value
2022-10-30T00:01:55.685Z,13.86
2022-10-30T00:04:25.885Z,13.82
2022-10-30T00:06:55.423Z,13.79
2022-10-30T00:09:24.603Z,13.85
2022-10-30T00:11:54.482Z,13.79
2022-10-30T00:14:22.462Z,13.78
2022-10-30T00:16:54.165Z,13.75
2022-10-30T00:19:26.945Z,13.72
2022-10-30T00:24:33.989Z,13.65
2022-10-30T00:27:05.094Z,13.66
2022-10-30T00:29:34.351Z,13.62
2022-10-30T00:32:05.098Z,13.61
2022-10-30T00:34:35.525Z,13.62
2022-10-30T00:37:05.388Z,13.59
2022-10-30T00:39:34.009Z,13.58
2022-10-30T00:42:03.327Z,13.59
2022-10-30T00:44:39.171Z,13.57
2022-10-30T00:47:12.087Z,13.55
2022-10-30T00:49:53.492Z,13.51
2022-10-30T00:52:31.950Z,13.51
2022-10-30T00:55:03.440Z,13.47
2022-10-30T00:57:33.376Z,13.45
2022-10-30T01:00:04.286Z,13.42
2022-10-30T01:02:33.893Z,13.41
2022-10-30T01:07:43.212Z,13.35
2022-10-30T01:10:11.456Z,13.34
2022-10-30T01:12:39.902Z,13.35
2022-10-30T01:15:09.379Z,13.35
2022-10-30T01:17:59.913Z,13.32
2022-10-30T01:20:45.772Z,13.34
2022-10-30T01:23:23.592Z,13.31
2022-10-30T01:26:08.983Z,13.27
2022-10-30T01:28:48.283Z,13.30
2022-10-30T01:31:35.695Z,13.26
2022-10-30T01:34:12.701Z,13.21
2022-10-30T01:36:47.599Z,13.23
2022-10-30T01:39:25.002Z,13.19
2022-10-30T01:41:54.311Z,13.19
2022-10-30T01:44:31.909Z,13.16
2022-10-30T01:47:30.388Z,13.13
2022-10-30T01:50:10.944Z,13.07
2022-10-30T01:52:46.119Z,13.04
2022-10-30T01:55:22.587Z,13.03
2022-10-30T01:57:58.442Z,13.01
2022-10-30T02:00:33.344Z,13.00
2022-10-30T02:03:02.306Z,12.99
2022-10-30T02:05:34.789Z,12.99
2022-10-30T02:08:09.275Z,12.99
2022-10-30T02:10:38.361Z,13.00
2022-10-30T02:13:12.555Z,12.97
2022-10-30T02:15:47.091Z,12.99
2022-10-30T02:18:20.164Z,13.03
2022-10-30T02:20:49.484Z,13.01
2022-10-30T02:23:22.377Z,13.01
2022-10-30T02:25:58.695Z,12.96
2022-10-30T02:28:27.527Z,12.96
2022-10-30T02:31:01.980Z,12.96
2022-10-30T02:33:30.603Z,12.99
2022-10-30T02:36:01.291Z,13.01
2022-10-30T02:38:31.649Z,13.00
2022-10-30T02:41:00.394Z,12.99
2022-10-30T02:43:31.118Z,13.00
2022-10-30T02:46:01.368Z,13.01
2022-10-30T02:48:31.470Z,13.04
2022-10-30T02:51:05.884Z,13.06
2022-10-30T02:53:35.236Z,13.10
2022-10-30T02:56:09.836Z,13.10
2022-10-30T02:58:38.615Z,13.13
2022-10-30T03:01:20.290Z,13.20
2022-10-30T03:03:49.650Z,13.21
2022-10-30T03:06:21.047Z,13.20
2022-10-30T03:08:49.376Z,13.19
2022-10-30T03:11:20.410Z,13.21
2022-10-30T03:13:51.781Z,13.19
2022-10-30T03:16:22.583Z,13.19
2022-10-30T03:18:53.343Z,13.17
2022-10-30T03:21:26.034Z,13.16
2022-10-30T03:24:00.868Z,13.17
2022-10-30T03:26:31.514Z,13.13
2022-10-30T03:28:59.971Z,13.13
2022-10-30T03:31:31.166Z,13.11
2022-10-30T03:33:59.336Z,13.07
2022-10-30T03:36:29.744Z,13.06
2022-10-30T03:38:59.122Z,13.06
2022-10-30T03:41:34.987Z,13.07
2022-10-30T03:44:04.190Z,13.04
2022-10-30T03:46:32.659Z,13.03
2022-10-30T03:49:01.139Z,13.01
2022-10-30T03:51:31.106Z,13.01
2022-10-30T03:54:00.238Z,13.04
2022-10-30T03:56:30.835Z,13.07
2022-10-30T03:59:03.272Z,13.08
2022-10-30T04:01:31.792Z,13.10
2022-10-30T04:04:01.292Z,13.13
2022-10-30T04:06:30.554Z,13.13
2022-10-30T04:09:06.598Z,13.17
2022-10-30T04:11:35.900Z,13.16
2022-10-30T04:14:09.817Z,13.13
2022-10-30T04:16:39.003Z,13.08
2022-10-30T04:19:10.250Z,13.04
2022-10-30T04:21:39.588Z,13.01
2022-10-30T04:24:10.319Z,12.96
2022-10-30T04:26:40.622Z,12.97
2022-10-30T04:29:10.887Z,12.96
2022-10-30T04:31:38.874Z,12.96
2022-10-30T04:34:07.061Z,12.96
2022-10-30T04:36:38.736Z,13.00
2022-10-30T04:39:08.816Z,12.99
2022-10-30T04:41:37.441Z,12.99
2022-10-30T04:44:06.279Z,12.94
2022-10-30T04:46:37.331Z,12.94
2022-10-30T04:49:07.964Z,12.94
2022-10-30T04:51:36.466Z,12.91
2022-10-30T04:54:05.017Z,12.93
2022-10-30T04:56:34.317Z,12.94
2022-10-30T04:59:05.456Z,12.93
2022-10-30T05:01:33.760Z,12.93
2022-10-30T05:04:05.268Z,12.89
2022-10-30T05:06:34.019Z,12.91
2022-10-30T05:09:02.727Z,12.90
2022-10-30T05:11:35.921Z,12.90
2022-10-30T05:14:04.034Z,12.89
2022-10-30T05:16:33.258Z,12.91
2022-10-30T05:19:01.533Z,12.87
2022-10-30T05:21:29.629Z,12.89
2022-10-30T05:23:57.989Z,12.89
2022-10-30T05:26:26.508Z,12.90
2022-10-30T05:28:55.858Z,12.89
2022-10-30T05:31:24.105Z,12.90
2022-10-30T05:33:52.233Z,12.89
2022-10-30T05:36:20.622Z,12.90
2022-10-30T05:38:48.531Z,12.87
2022-10-30T05:41:19.884Z,12.90
2022-10-30T05:43:50.903Z,12.93
2022-10-30T05:46:20.850Z,12.94
2022-10-30T05:48:50.820Z,12.93
2022-10-30T05:51:22.790Z,12.91
2022-10-30T05:53:52.517Z,12.89
2022-10-30T05:56:21.131Z,12.93
2022-10-30T05:58:49.950Z,12.91
2022-10-30T06:01:18.245Z,12.90
2022-10-30T06:03:48.057Z,12.86
2022-10-30T06:06:16.533Z,12.86
2022-10-30T06:08:47.767Z,12.87
2022-10-30T06:11:16.694Z,12.83
2022-10-30T06:13:48.619Z,12.83
2022-10-30T06:16:17.105Z,12.89
2022-10-30T06:18:45.576Z,12.90
2022-10-30T06:21:17.917Z,12.89
2022-10-30T06:23:50.037Z,12.93
2022-10-30T06:26:19.213Z,12.96
2022-10-30T06:28:48.245Z,12.96
2022-10-30T06:31:16.774Z,13.00
2022-10-30T06:33:44.817Z,13.06
2022-10-30T06:36:13.092Z,13.06
2022-10-30T06:38:46.268Z,13.07
2022-10-30T06:41:29.098Z,13.10
2022-10-30T06:43:59.737Z,13.14
2022-10-30T06:46:32.453Z,13.17
2022-10-30T06:49:02.245Z,13.17
2022-10-30T06:51:30.801Z,13.20
2022-10-30T06:54:00.102Z,13.26
2022-10-30T06:56:28.845Z,13.27
2022-10-30T06:58:58.794Z,13.32
2022-10-30T07:01:28.518Z,13.35
2022-10-30T07:03:56.496Z,13.40
2022-10-30T07:06:25.769Z,13.44
2022-10-30T07:08:54.539Z,13.47
2022-10-30T07:11:24.454Z,13.54
2022-10-30T07:13:52.537Z,13.55
2022-10-30T07:16:20.956Z,13.61
2022-10-30T07:18:49.243Z,13.69
2022-10-30T07:21:17.633Z,13.76
2022-10-30T07:23:46.484Z,13.86
2022-10-30T07:26:14.875Z,13.93
2022-10-30T07:28:44.804Z,14.02
2022-10-30T07:31:28.911Z,14.06
2022-10-30T07:34:09.534Z,14.14
2022-10-30T07:36:38.718Z,14.21
2022-10-30T07:39:07.379Z,14.24
2022-10-30T07:41:35.890Z,14.28
2022-10-30T07:44:06.046Z,14.34
2022-10-30T07:46:41.832Z,14.44
2022-10-30T07:49:11.789Z,14.57
2022-10-30T07:51:40.294Z,14.71
2022-10-30T07:54:09.146Z,14.93
2022-10-30T07:56:38.174Z,15.19
2022-10-30T07:59:12.107Z,15.54
2022-10-30T08:01:42.082Z,16.00
2022-10-30T08:04:11.388Z,16.36
2022-10-30T08:06:40.482Z,16.79
2022-10-30T08:09:10.313Z,17.21
2022-10-30T08:11:39.126Z,17.63
2022-10-30T08:14:08.706Z,18.08
2022-10-30T08:16:36.837Z,18.53
2022-10-30T08:19:05.556Z,19.03
2022-10-30T08:21:35.727Z,19.43
2022-10-30T08:24:04.062Z,19.75
2022-10-30T08:26:36.179Z,20.06
2022-10-30T08:29:04.793Z,20.27
2022-10-30T08:31:34.727Z,20.30
2022-10-30T08:34:04.611Z,20.27
2022-10-30T08:36:35.231Z,20.30
2022-10-30T08:39:05.079Z,20.43
2022-10-30T08:41:33.621Z,20.43
2022-10-30T08:44:03.154Z,20.34
2022-10-30T08:46:34.084Z,20.29
2022-10-30T08:49:03.021Z,20.24
2022-10-30T08:51:34.125Z,20.43
2022-10-30T08:54:06.463Z,20.67
2022-10-30T08:56:36.604Z,20.94
2022-10-30T08:59:08.865Z,21.16
2022-10-30T09:01:39.127Z,21.42
2022-10-30T09:04:09.875Z,21.60
2022-10-30T09:06:40.596Z,21.71
2022-10-30T09:09:14.058Z,21.90
2022-10-30T09:11:44.859Z,22.08
2022-10-30T09:14:12.813Z,22.32
2022-10-30T09:16:43.077Z,22.48
2022-10-30T09:19:18.625Z,22.61
2022-10-30T09:21:47.360Z,22.86
2022-10-30T09:24:17.412Z,23.13
2022-10-30T09:26:45.674Z,23.30
2022-10-30T09:29:14.406Z,23.47
2022-10-30T09:31:44.079Z,23.60
2022-10-30T09:34:13.537Z,23.64
2022-10-30T09:36:43.920Z,23.77
2022-10-30T09:39:16.368Z,23.85
2022-10-30T09:42:06.004Z,23.99
2022-10-30T09:44:43.751Z,24.01
2022-10-30T09:47:23.785Z,23.98
2022-10-30T09:50:09.314Z,24.03
2022-10-30T09:52:44.113Z,24.06
2022-10-30T09:55:31.993Z,24.16
2022-10-30T09:58:12.152Z,24.25
2022-10-30T10:00:41.659Z,24.25
2022-10-30T10:03:30.092Z,24.28
2022-10-30T10:06:00.428Z,24.26
2022-10-30T10:08:31.810Z,24.28
2022-10-30T10:11:07.097Z,24.30
2022-10-30T10:13:38.714Z,24.36
2022-10-30T10:16:16.119Z,24.36
2022-10-30T10:18:50.224Z,24.43
2022-10-30T10:21:25.370Z,24.53
2022-10-30T10:24:00.217Z,24.54
2022-10-30T10:26:31.537Z,24.60
2022-10-30T10:29:42.214Z,24.63
2022-10-30T10:32:21.141Z,24.66
2022-10-30T10:35:21.629Z,24.74
2022-10-30T10:37:53.686Z,24.81
2022-10-30T10:40:36.651Z,24.87
2022-10-30T10:43:12.952Z,24.97
2022-10-30T10:45:48.368Z,24.99
2022-10-30T10:48:44.284Z,24.99
2022-10-30T10:51:17.092Z,25.02
2022-10-30T10:53:47.685Z,25.01
2022-10-30T10:56:20.646Z,25.05
2022-10-30T10:58:52.544Z,25.07
2022-10-30T11:01:24.823Z,25.15
2022-10-30T11:04:00.266Z,25.22
2022-10-30T11:06:34.578Z,25.26
2022-10-30T11:09:14.552Z,25.22
2022-10-30T11:11:44.139Z,25.19
2022-10-30T11:14:15.809Z,24.95
2022-10-30T11:17:05.262Z,24.94
2022-10-30T11:19:33.592Z,24.97
2022-10-30T11:22:16.006Z,24.99
2022-10-30T11:24:44.290Z,25.04
2022-10-30T11:27:22.185Z,25.04
2022-10-30T11:29:55.733Z,25.05
2022-10-30T11:32:28.062Z,24.91
2022-10-30T11:35:05.216Z,24.83
2022-10-30T11:37:38.113Z,24.73
2022-10-30T11:40:16.023Z,24.70
2022-10-30T11:42:47.505Z,24.71
2022-10-30T11:45:17.074Z,24.63
2022-10-30T11:47:46.177Z,24.36
2022-10-30T11:50:19.831Z,24.28
2022-10-30T11:52:52.020Z,24.23
2022-10-30T11:55:21.071Z,24.18
2022-10-30T11:57:53.998Z,24.18
2022-10-30T12:00:24.091Z,24.08
2022-10-30T12:02:56.268Z,24.12
2022-10-30T12:05:43.573Z,24.18
2022-10-30T12:08:25.778Z,24.26
2022-10-30T12:11:01.639Z,24.30
2022-10-30T12:13:36.450Z,24.28
2022-10-30T12:16:15.065Z,24.26
2022-10-30T12:18:44.406Z,24.10
2022-10-30T12:21:18.573Z,23.95
2022-10-30T12:23:54.281Z,23.77
2022-10-30T12:26:23.825Z,23.57
2022-10-30T12:28:57.150Z,23.41
2022-10-30T12:31:33.367Z,23.27
2022-10-30T12:34:21.982Z,23.12
2022-10-30T12:36:54.064Z,23.03
2022-10-30T12:39:25.330Z,22.95
2022-10-30T12:41:59.057Z,22.85
2022-10-30T12:44:29.667Z,22.77
2022-10-30T12:47:02.541Z,22.69
2022-10-30T12:49:38.151Z,22.61
2022-10-30T12:52:13.338Z,22.56
2022-10-30T12:55:00.094Z,22.55
2022-10-30T12:57:30.081Z,22.49
2022-10-30T13:00:03.602Z,22.44
2022-10-30T13:02:44.131Z,22.37
2022-10-30T13:05:31.397Z,22.31
2022-10-30T13:08:21.556Z,22.22
2022-10-30T13:10:55.595Z,22.20
2022-10-30T13:13:26.368Z,22.16
2022-10-30T13:16:00.611Z,22.11
2022-10-30T13:18:31.405Z,22.11
2022-10-30T13:21:22.033Z,22.05
2022-10-30T13:23:57.890Z,22.01
2022-10-30T13:26:40.444Z,22.00
2022-10-30T13:29:17.360Z,21.98
2022-10-30T13:31:55.250Z,21.97
2022-10-30T13:34:33.977Z,21.91
2022-10-30T13:37:08.172Z,21.87
2022-10-30T13:39:46.863Z,21.88
2022-10-30T13:42:26.310Z,21.84
2022-10-30T13:45:05.266Z,21.81
2022-10-30T13:47:42.728Z,21.79
2022-10-30T13:50:41.206Z,21.70
2022-10-30T13:53:14.978Z,21.69
2022-10-30T13:55:43.796Z,21.65
2022-10-30T13:58:21.428Z,21.58
2022-10-30T14:01:00.693Z,21.50
2022-10-30T14:03:54.227Z,21.46
2022-10-30T14:06:33.902Z,21.42
2022-10-30T14:09:08.189Z,21.39
2022-10-30T14:11:36.455Z,21.32
2022-10-30T14:14:23.451Z,21.28
2022-10-30T14:17:12.902Z,21.22
2022-10-30T14:20:19.636Z,21.16
2022-10-30T14:23:08.954Z,21.11
2022-10-30T14:25:37.726Z,21.02
2022-10-30T14:28:06.226Z,21.01
2022-10-30T14:30:38.628Z,20.94
2022-10-30T14:33:12.071Z,20.87
2022-10-30T14:35:43.027Z,20.84
2022-10-30T14:38:28.934Z,20.75
2022-10-30T14:41:12.851Z,20.70
2022-10-30T14:44:05.367Z,20.63
2022-10-30T14:46:43.506Z,20.59
2022-10-30T14:49:32.171Z,20.54
2022-10-30T14:52:10.044Z,20.45
2022-10-30T14:57:53.911Z,20.29
2022-10-30T15:00:42.587Z,20.19
2022-10-30T15:03:19.566Z,20.16
2022-10-30T15:05:52.556Z,20.15
2022-10-30T15:08:58.856Z,20.08
2022-10-30T15:11:36.013Z,20.01
2022-10-30T15:17:01.237Z,20.02
2022-10-30T15:19:34.993Z,19.99
2022-10-30T15:22:05.996Z,19.95
2022-10-30T15:24:35.019Z,19.83
2022-10-30T15:27:06.928Z,19.76
2022-10-30T15:29:37.950Z,19.58
2022-10-30T15:32:20.155Z,19.50
2022-10-30T15:34:59.990Z,19.37
2022-10-30T15:37:28.705Z,19.24
2022-10-30T15:40:16.724Z,19.13
2022-10-30T15:42:51.500Z,18.95
2022-10-30T15:45:23.242Z,18.86
2022-10-30T15:47:58.157Z,18.72
2022-10-30T15:50:32.454Z,18.61
2022-10-30T15:53:05.660Z,18.48
2022-10-30T15:55:41.426Z,18.42
2022-10-30T15:58:20.932Z,18.35
2022-10-30T16:00:59.141Z,18.22
2022-10-30T16:03:43.212Z,18.11
2022-10-30T16:06:17.960Z,17.97
2022-10-30T16:08:51.424Z,17.81
2022-10-30T16:11:21.744Z,17.72
2022-10-30T16:13:54.016Z,17.58
2022-10-30T16:16:28.847Z,17.50
2022-10-30T16:19:01.243Z,17.42
2022-10-30T16:21:32.108Z,17.38
2022-10-30T16:24:03.174Z,17.34
2022-10-30T16:26:37.174Z,17.27
2022-10-30T16:29:24.732Z,17.16
2022-10-30T16:31:53.603Z,17.04
2022-10-30T16:34:25.549Z,16.91
2022-10-30T16:36:56.546Z,16.81
2022-10-30T16:39:27.248Z,16.77
2022-10-30T16:41:58.882Z,16.69
2022-10-30T16:44:28.678Z,16.63
2022-10-30T16:46:59.784Z,16.55
2022-10-30T16:49:30.428Z,16.47
2022-10-30T16:52:05.318Z,16.42
2022-10-30T16:54:37.156Z,16.35
2022-10-30T16:57:13.304Z,16.23
2022-10-30T16:59:47.059Z,16.12
2022-10-30T17:02:20.548Z,16.06
2022-10-30T17:04:57.189Z,15.98
2022-10-30T17:07:28.192Z,15.85
2022-10-30T17:10:00.132Z,15.77
2022-10-30T17:12:32.259Z,15.75
2022-10-30T17:15:13.613Z,15.68
2022-10-30T17:17:43.692Z,15.56
2022-10-30T17:20:29.975Z,15.51
2022-10-30T17:23:19.058Z,15.46
2022-10-30T17:25:51.048Z,15.37
2022-10-30T17:28:27.129Z,15.30
2022-10-30T17:30:55.901Z,15.20
2022-10-30T17:33:36.664Z,15.15
2022-10-30T17:36:06.110Z,15.03
2022-10-30T17:38:38.727Z,15.03
2022-10-30T17:41:08.229Z,15.05
2022-10-30T17:43:51.607Z,14.99
2022-10-30T17:46:22.456Z,14.96
2022-10-30T17:48:52.885Z,14.91
2022-10-30T17:51:24.136Z,14.84
2022-10-30T17:53:54.895Z,14.81
2022-10-30T17:56:29.732Z,14.69
2022-10-30T17:58:59.409Z,14.68
2022-10-30T18:01:33.994Z,14.65
2022-10-30T18:04:05.432Z,14.63
2022-10-30T18:06:33.431Z,14.58
2022-10-30T18:09:04.674Z,14.56
2022-10-30T18:11:33.882Z,14.53
2022-10-30T18:14:02.288Z,14.56
2022-10-30T18:16:32.754Z,14.56
2022-10-30T18:19:01.803Z,14.56
2022-10-30T18:21:41.927Z,14.53
2022-10-30T18:24:22.509Z,14.54
2022-10-30T18:26:53.908Z,14.48
2022-10-30T18:29:28.076Z,14.48
2022-10-30T18:31:56.855Z,14.48
2022-10-30T18:34:29.068Z,14.44
2022-10-30T18:36:58.080Z,14.40
2022-10-30T18:39:28.017Z,14.42
2022-10-30T18:41:57.597Z,14.42
2022-10-30T18:44:25.605Z,14.40
2022-10-30T18:47:02.514Z,14.40
2022-10-30T18:49:33.735Z,14.36
2022-10-30T18:52:03.967Z,14.34
2022-10-30T18:54:36.198Z,14.24
2022-10-30T18:57:05.440Z,14.23
2022-10-30T18:59:33.833Z,14.23
2022-10-30T19:02:04.181Z,14.19
2022-10-30T19:04:34.706Z,14.17
2022-10-30T19:07:06.526Z,14.10
2022-10-30T19:09:36.774Z,14.07
2022-10-30T19:12:07.628Z,14.03
2022-10-30T19:14:38.709Z,13.95
2022-10-30T19:17:08.938Z,13.89
2022-10-30T19:19:38.076Z,13.83
2022-10-30T19:22:07.039Z,13.78
2022-10-30T19:24:39.906Z,13.73
2022-10-30T19:27:07.949Z,13.73
2022-10-30T19:29:39.035Z,13.70
2022-10-30T19:32:07.728Z,13.68
2022-10-30T19:34:36.662Z,13.68
2022-10-30T19:37:04.920Z,13.65
2022-10-30T19:39:33.552Z,13.61
2022-10-30T19:42:05.472Z,13.54
2022-10-30T19:44:37.887Z,13.48
2022-10-30T19:47:08.226Z,13.44
2022-10-30T19:49:37.860Z,13.35
2022-10-30T19:52:07.718Z,13.34
2022-10-30T19:54:38.864Z,13.31
2022-10-30T19:57:25.119Z,13.26
2022-10-30T19:59:53.900Z,13.23
2022-10-30T20:02:21.867Z,13.20
2022-10-30T20:04:50.361Z,13.21
2022-10-30T20:07:20.832Z,13.24
2022-10-30T20:09:49.709Z,13.23
2022-10-30T20:12:19.512Z,13.17
2022-10-30T20:14:49.232Z,13.13
2022-10-30T20:17:17.436Z,13.11
2022-10-30T20:19:46.695Z,13.11
2022-10-30T20:22:14.775Z,13.10
2022-10-30T20:24:45.115Z,13.08
2022-10-30T20:27:14.170Z,13.10
2022-10-30T20:29:54.522Z,13.06
2022-10-30T20:32:22.763Z,12.99
2022-10-30T20:34:51.427Z,12.91
2022-10-30T20:37:19.450Z,12.89
2022-10-30T20:39:50.102Z,12.83
2022-10-30T20:42:26.128Z,12.77
2022-10-30T20:44:57.175Z,12.80
2022-10-30T20:47:25.490Z,12.82
2022-10-30T20:49:53.935Z,12.84
2022-10-30T20:52:23.038Z,12.84
2022-10-30T20:54:52.731Z,12.89
2022-10-30T20:57:22.574Z,12.83
2022-10-30T20:59:51.128Z,12.82
2022-10-30T21:02:23.268Z,12.76
2022-10-30T21:04:51.628Z,12.77
2022-10-30T21:07:21.717Z,12.75
2022-10-30T21:09:49.751Z,12.77
2022-10-30T21:12:18.296Z,12.77
2022-10-30T21:14:47.795Z,12.75
2022-10-30T21:17:17.740Z,12.75
2022-10-30T21:19:47.132Z,12.75
2022-10-30T21:22:16.531Z,12.73
2022-10-30T21:24:44.660Z,12.73
2022-10-30T21:27:13.832Z,12.75
2022-10-30T21:29:46.209Z,12.69
2022-10-30T21:32:15.191Z,12.65
2022-10-30T21:34:45.073Z,12.62
2022-10-30T21:37:14.946Z,12.62
2022-10-30T21:39:47.188Z,12.56
2022-10-30T21:42:15.292Z,12.52
2022-10-30T21:44:44.721Z,12.49
2022-10-30T21:47:14.707Z,12.51
2022-10-30T21:49:45.142Z,12.46
2022-10-30T21:52:18.108Z,12.42
2022-10-30T21:54:48.661Z,12.41
2022-10-30T21:57:16.950Z,12.33
2022-10-30T21:59:46.337Z,12.31
2022-10-30T22:02:15.369Z,12.26
2022-10-30T22:04:44.792Z,12.25
2022-10-30T22:07:16.509Z,12.31
2022-10-30T22:09:48.370Z,12.25
2022-10-30T22:12:16.337Z,12.24
2022-10-30T22:14:44.598Z,12.26
2022-10-30T22:17:13.972Z,12.26
2022-10-30T22:19:42.761Z,12.24
2022-10-30T22:22:13.172Z,12.21
2022-10-30T22:24:42.743Z,12.18
2022-10-30T22:27:11.475Z,12.12
2022-10-30T22:29:40.488Z,12.11
2022-10-30T22:32:08.762Z,12.07
2022-10-30T22:34:38.187Z,12.11
2022-10-30T22:37:06.374Z,12.10
2022-10-30T22:39:34.419Z,12.08
2022-10-30T22:42:03.929Z,12.08
2022-10-30T22:44:32.146Z,12.08
2022-10-30T22:47:01.633Z,12.04
2022-10-30T22:49:34.196Z,11.98
2022-10-30T22:52:03.414Z,11.95
2022-10-30T22:54:32.704Z,11.89
2022-10-30T22:57:01.130Z,11.87
2022-10-30T22:59:32.941Z,11.91
2022-10-30T23:02:04.235Z,11.86
2022-10-30T23:04:33.172Z,11.86
2022-10-30T23:07:03.573Z,11.82
2022-10-30T23:09:31.687Z,11.76
2022-10-30T23:12:02.421Z,11.74
2022-10-30T23:14:33.596Z,11.70
2022-10-30T23:17:05.568Z,11.69
2022-10-30T23:19:34.130Z,11.66
2022-10-30T23:22:06.150Z,11.67
2022-10-30T23:24:35.401Z,11.66
2022-10-30T23:27:09.755Z,11.70
2022-10-30T23:29:40.974Z,11.66
2022-10-30T23:32:09.186Z,11.62
2022-10-30T23:34:37.638Z,11.63
2022-10-30T23:37:06.466Z,11.63
2022-10-30T23:39:35.061Z,11.69
2022-10-30T23:42:03.021Z,11.67
2022-10-30T23:44:32.240Z,11.67
2022-10-30T23:47:04.730Z,11.67
2022-10-30T23:49:34.176Z,11.64
2022-10-30T23:52:02.664Z,11.57
2022-10-30T23:54:32.121Z,11.53
2022-10-30T23:57:00.118Z,11.57
2022-10-30T23:59:28.194Z,11.59
